Aurora, CO (80018)

1:47 PM MST on November 28, 2014 (GMT -0700)
Thunderbird Estates | Change Station
CLOSE
Current Station
Personal Weather Station
Location: Aurora, CO
Elevation: 5617 ft
Nearby Weather Stations

Elev 5617 ft 39.71 °N, 104.70 °W | Updated 1 minute ago

Mostly Cloudy
Mostly Cloudy
65.7 °F
Feels Like 65.7 °F
N
2.7
Wind Variable Wind from ENE

Today
High -- | Low -- °F
--% Chance of Precip.
Yesterday
High -- | Low -- °F
Precip. -- in
6:57 AM 4:35 PM
Waxing Crescent, 44% visible
Pressure 29.71 in
Visibility 10.0 miles
Clouds Few 11000 ft
Mostly Cloudy 22000 ft
Dew Point 20 °F
Humidity 17%
Rainfall 0.00 in
Snow Depth Not available.
UV 1 out of 12
Pollen .10 out of 12
Air Quality Not available.
Flu Activity Not available.
METAR KBKF 281958Z 07006KT 10SM FEW110 BKN220 20/M12 A2987 RMK AO2A SLP059 T01971124

More Conditions Fewer Conditions

Pressure 29.71 in
Visibility 10.0 miles
Clouds Few 11000 ft
Mostly Cloudy 22000 ft
Dew Point 20 °F
Humidity 17%
Rainfall 0.00 in
Snow Depth Not available.
UV 1 out of 12
Pollen .10 out of 12
Air Quality Not available.
Flu Activity Not available.
METAR KBKF 281958Z 07006KT 10SM FEW110 BKN220 20/M12 A2987 RMK AO2A SLP059 T01971124

More Conditions Fewer Conditions

10-Day Weather Forecast

Almanac

Astronomy

Nov. 28, 2014 Rise Set
Actual Time
Civil Twilight
Nautical Twilight
Astronomical Twilight
Moon
Length of Visible Light
Length of Day
Tomorrow will be .
, % of the Moon is Illuminated

Today's Extremes

State Highs State Lows

Community

WunderPhotos

Upload Photos

1,774,287 photos uploaded!

WunderBlogs® & News

Nearby

Air Quality

  Air Quality AQ Index Pollutant
Not available.

Snow Depth

Station Depth Elevation

Earthquake Activity

City Distance Mag. Time & Date
Minimum magnitude displayed is 2.5.

Coastal Water Temperatures

Place Temperature

Nearby Weather Stations